createdAt,value
2023-04-03T00:01:27.493Z,99441.34
2023-04-03T00:04:00.884Z,99441.20
2023-04-03T00:06:34.988Z,99436.42
2023-04-03T00:09:09.472Z,99442.55
2023-04-03T00:11:41.880Z,99437.50
2023-04-03T00:14:14.680Z,99442.42
2023-04-03T00:16:47.945Z,99443.91
2023-04-03T00:19:21.046Z,99442.45
2023-04-03T00:21:54.613Z,99444.34
2023-04-03T00:24:27.296Z,99444.90
2023-04-03T00:27:00.392Z,99451.92
2023-04-03T00:29:33.613Z,99448.36
2023-04-03T00:32:06.118Z,99450.92
2023-04-03T00:34:40.434Z,99445.17
2023-04-03T00:37:13.186Z,99441.74
2023-04-03T00:39:45.697Z,99448.01
2023-04-03T00:42:18.827Z,99444.80
2023-04-03T00:45:01.865Z,99433.85
2023-04-03T00:47:35.022Z,99435.06
2023-04-03T00:50:08.863Z,99435.83
2023-04-03T00:52:41.412Z,99433.12
2023-04-03T00:55:15.535Z,99437.91
2023-04-03T00:57:48.085Z,99429.08
2023-04-03T01:00:23.554Z,99424.05
2023-04-03T01:02:56.738Z,99427.03
2023-04-03T01:05:30.635Z,99424.98
2023-04-03T01:08:03.426Z,99428.97
2023-04-03T01:10:36.204Z,99429.45
2023-04-03T01:13:33.045Z,99431.15
2023-04-03T01:16:07.838Z,99427.83
2023-04-03T01:18:41.511Z,99425.27
2023-04-03T01:21:40.034Z,99427.23
2023-04-03T01:24:37.360Z,99433.02
2023-04-03T01:27:11.888Z,99434.85
2023-04-03T01:29:44.675Z,99433.16
2023-04-03T01:32:17.620Z,99435.61
2023-04-03T01:34:50.188Z,99429.10
2023-04-03T01:37:22.709Z,99432.50
2023-04-03T01:39:56.311Z,99433.12
2023-04-03T01:42:29.033Z,99433.72
2023-04-03T01:45:01.504Z,99435.45
2023-04-03T01:47:34.467Z,99435.93
2023-04-03T01:50:07.925Z,99437.28
2023-04-03T01:52:40.836Z,99437.06
2023-04-03T01:55:13.558Z,99428.59
2023-04-03T01:57:47.126Z,99436.06
2023-04-03T02:00:20.258Z,99426.12
2023-04-03T02:02:53.304Z,99429.03
2023-04-03T02:05:26.240Z,99427.81
2023-04-03T02:07:59.271Z,99429.17
2023-04-03T02:10:32.880Z,99427.95
2023-04-03T02:13:06.156Z,99429.37
2023-04-03T02:15:41.332Z,99426.81
2023-04-03T02:18:13.361Z,99428.30
2023-04-03T02:20:46.449Z,99432.97
2023-04-03T02:23:19.285Z,99433.77
2023-04-03T02:25:51.983Z,99431.41
2023-04-03T02:28:25.102Z,99437.27
2023-04-03T02:30:57.694Z,99434.43
2023-04-03T02:33:31.050Z,99439.04
2023-04-03T02:36:03.720Z,99439.53
2023-04-03T02:38:36.771Z,99433.77
2023-04-03T02:41:11.576Z,99433.77
2023-04-03T02:43:44.288Z,99438.31
2023-04-03T02:46:17.116Z,99437.62
2023-04-03T02:48:49.854Z,99437.62
2023-04-03T02:51:22.454Z,99444.02
2023-04-03T02:53:54.941Z,99433.50
2023-04-03T02:56:28.990Z,99438.53
2023-04-03T02:59:01.470Z,99436.28
2023-04-03T03:01:36.939Z,99441.33
2023-04-03T03:04:09.541Z,99443.69
2023-04-03T03:06:43.682Z,99441.81
2023-04-03T03:09:17.921Z,99447.22
2023-04-03T03:11:50.664Z,99446.73
2023-04-03T03:14:24.464Z,99447.22
2023-04-03T03:16:57.044Z,99446.39
2023-04-03T03:19:29.755Z,99454.35
2023-04-03T03:22:02.760Z,99445.73
2023-04-03T03:24:35.537Z,99446.63
2023-04-03T03:27:09.483Z,99441.58
2023-04-03T03:29:42.946Z,99446.08
2023-04-03T03:32:15.737Z,99435.90
2023-04-03T03:34:49.224Z,99445.42
2023-04-03T03:37:21.639Z,99442.72
2023-04-03T03:39:54.210Z,99443.00
2023-04-03T03:42:27.104Z,99452.24
2023-04-03T03:44:59.594Z,99446.02
2023-04-03T03:47:32.294Z,99446.84
2023-04-03T03:50:06.167Z,99449.68
2023-04-03T03:52:40.013Z,99449.78
2023-04-03T03:55:12.566Z,99453.97
2023-04-03T03:57:46.744Z,99454.59
2023-04-03T04:00:19.922Z,99457.16
2023-04-03T04:02:57.719Z,99456.53
2023-04-03T04:05:30.130Z,99461.72
2023-04-03T04:08:04.145Z,99453.14
2023-04-03T04:10:37.637Z,99461.11
2023-04-03T04:13:10.933Z,99466.99
2023-04-03T04:15:44.734Z,99462.84
2023-04-03T04:18:19.015Z,99459.52
2023-04-03T04:20:51.779Z,99463.05
2023-04-03T04:23:25.057Z,99465.96
2023-04-03T04:25:58.248Z,99462.22
2023-04-03T04:28:32.114Z,99464.05
2023-04-03T04:31:05.238Z,99470.80
2023-04-03T04:33:38.952Z,99474.37
2023-04-03T04:36:12.402Z,99472.88
2023-04-03T04:38:46.920Z,99466.27
2023-04-03T04:41:21.656Z,99467.48
2023-04-03T04:43:54.604Z,99468.97
2023-04-03T04:46:28.268Z,99472.72
2023-04-03T04:49:02.281Z,99466.69
2023-04-03T04:51:48.350Z,99458.80
2023-04-03T04:54:10.451Z,99461.81
2023-04-03T04:56:44.296Z,99469.99
2023-04-03T04:59:18.796Z,99461.02
2023-04-03T05:01:52.454Z,99463.72
2023-04-03T05:04:25.825Z,99468.50
2023-04-03T05:07:00.895Z,99474.50
2023-04-03T05:09:35.479Z,99470.80
2023-04-03T05:12:08.551Z,99471.35
2023-04-03T05:14:42.880Z,99481.75
2023-04-03T05:17:16.268Z,99471.66
2023-04-03T05:19:50.722Z,99477.87
2023-04-03T05:22:23.531Z,99481.27
2023-04-03T05:24:58.377Z,99471.80
2023-04-03T05:27:31.129Z,99477.73
2023-04-03T05:30:05.529Z,99476.17
2023-04-03T05:32:39.206Z,99475.65
2023-04-03T05:35:13.502Z,99485.42
2023-04-03T05:37:47.561Z,99486.36
2023-04-03T05:40:20.752Z,99484.00
2023-04-03T05:42:55.775Z,99491.69
2023-04-03T05:45:28.898Z,99490.06
2023-04-03T05:48:02.429Z,99497.03
2023-04-03T05:50:35.560Z,99487.77
2023-04-03T05:53:09.611Z,99489.47
2023-04-03T05:55:42.329Z,99486.77
2023-04-03T05:58:14.895Z,99497.30
2023-04-03T06:00:48.142Z,99499.87
2023-04-03T06:03:21.976Z,99494.98
2023-04-03T06:05:54.908Z,99502.21
2023-04-03T06:08:28.544Z,99506.44
2023-04-03T06:11:04.198Z,99507.16
2023-04-03T06:13:36.744Z,99509.00
2023-04-03T06:16:15.988Z,99509.48
2023-04-03T06:18:49.434Z,99508.86
2023-04-03T06:21:22.365Z,99509.72
2023-04-03T06:23:54.968Z,99507.84
2023-04-03T06:26:28.482Z,99515.54
2023-04-03T06:29:01.587Z,99521.88
2023-04-03T06:31:34.777Z,99517.54
2023-04-03T06:34:09.639Z,99522.53
2023-04-03T06:36:43.439Z,99518.95
2023-04-03T06:39:24.745Z,99521.37
2023-04-03T06:41:57.921Z,99526.16
2023-04-03T06:44:35.717Z,99526.16
2023-04-03T06:47:09.748Z,99528.93
2023-04-03T06:49:44.340Z,99529.62
2023-04-03T06:52:16.851Z,99530.83
2023-04-03T06:54:49.740Z,99532.05
2023-04-03T06:57:23.582Z,99529.48
2023-04-03T06:59:57.059Z,99535.61
2023-04-03T07:02:29.807Z,99537.89
2023-04-03T07:05:02.907Z,99534.23
2023-04-03T07:07:35.556Z,99538.39
2023-04-03T07:10:09.767Z,99538.88
2023-04-03T07:12:42.843Z,99544.92
2023-04-03T07:15:16.966Z,99545.44
2023-04-03T07:17:49.731Z,99542.73
2023-04-03T07:20:22.810Z,99544.78
2023-04-03T07:22:55.528Z,99550.13
2023-04-03T07:25:28.000Z,99550.13
2023-04-03T07:28:00.531Z,99554.25
2023-04-03T07:30:33.092Z,99549.42
2023-04-03T07:33:06.334Z,99549.97
2023-04-03T07:35:39.501Z,99558.33
2023-04-03T07:38:13.044Z,99551.84
2023-04-03T07:40:50.876Z,99554.26
2023-04-03T07:43:25.854Z,99558.52
2023-04-03T07:45:58.277Z,99558.23
2023-04-03T07:48:31.177Z,99561.20
2023-04-03T07:51:05.309Z,99559.27
2023-04-03T07:53:37.875Z,99559.18
2023-04-03T07:56:10.999Z,99555.50
2023-04-03T07:58:44.196Z,99563.48
2023-04-03T08:01:17.510Z,99556.61
2023-04-03T08:03:51.934Z,99564.10
2023-04-03T08:06:37.474Z,99564.10
2023-04-03T08:09:00.173Z,99565.94
2023-04-03T08:11:33.200Z,99566.81
2023-04-03T08:14:06.654Z,99569.38
2023-04-03T08:16:39.362Z,99573.00
2023-04-03T08:19:22.292Z,99575.19
2023-04-03T08:21:48.471Z,99575.61
2023-04-03T08:24:21.025Z,99574.98
2023-04-03T08:26:54.733Z,99582.39
2023-04-03T08:29:27.719Z,99580.74
2023-04-03T08:32:00.393Z,99578.23
2023-04-03T08:34:35.403Z,99587.77
2023-04-03T08:37:08.807Z,99581.07
2023-04-03T08:39:42.305Z,99582.03
2023-04-03T08:42:32.324Z,99583.78
2023-04-03T08:45:29.372Z,99586.15
2023-04-03T08:48:12.584Z,99581.98
2023-04-03T08:50:50.038Z,99579.28
2023-04-03T08:53:25.639Z,99582.80
2023-04-03T08:55:59.142Z,99591.17
2023-04-03T08:58:34.101Z,99591.97
2023-04-03T09:01:10.727Z,99591.37
2023-04-03T09:03:43.585Z,99591.56
2023-04-03T09:06:26.081Z,99594.64
2023-04-03T09:09:17.640Z,99589.91
2023-04-03T09:12:29.332Z,99594.57
2023-04-03T09:15:35.442Z,99592.05
2023-04-03T09:18:23.934Z,99591.21
2023-04-03T09:21:01.945Z,99585.17
2023-04-03T09:23:50.471Z,99595.58
2023-04-03T09:26:40.584Z,99596.45
2023-04-03T09:29:18.265Z,99591.17
2023-04-03T09:31:54.436Z,99596.66
2023-04-03T09:34:34.803Z,99587.57
2023-04-03T09:37:08.382Z,99595.88
2023-04-03T09:39:57.333Z,99596.65
2023-04-03T09:42:29.945Z,99594.73
2023-04-03T09:45:07.849Z,99598.74
2023-04-03T09:47:43.018Z,99602.14
2023-04-03T09:50:20.793Z,99602.33
2023-04-03T09:52:53.991Z,99601.43
2023-04-03T09:55:30.270Z,99607.30
2023-04-03T09:58:05.568Z,99601.58
2023-04-03T10:00:40.817Z,99604.66
2023-04-03T10:03:40.437Z,99609.11
2023-04-03T10:06:26.449Z,99608.42
2023-04-03T10:09:06.403Z,99613.80
2023-04-03T10:11:38.914Z,99612.88
2023-04-03T10:14:16.930Z,99623.75
2023-04-03T10:17:04.897Z,99620.90
2023-04-03T10:19:49.980Z,99622.61
2023-04-03T10:22:39.492Z,99623.59
2023-04-03T10:25:25.382Z,99626.41
2023-04-03T10:28:35.078Z,99628.00
2023-04-03T10:31:13.007Z,99633.82
2023-04-03T10:34:13.166Z,99640.13
2023-04-03T10:36:57.270Z,99637.08
2023-04-03T10:39:52.972Z,99647.20
2023-04-03T10:42:48.626Z,99641.44
2023-04-03T10:45:34.955Z,99642.02
2023-04-03T10:48:15.085Z,99646.72
2023-04-03T10:50:55.521Z,99643.03
2023-04-03T10:53:41.422Z,99643.33
2023-04-03T10:56:35.759Z,99646.17
2023-04-03T10:59:19.151Z,99646.17
2023-04-03T11:01:59.028Z,99644.33
2023-04-03T11:04:35.457Z,99640.41
2023-04-03T11:07:24.434Z,99638.48
2023-04-03T11:10:01.187Z,99651.46
2023-04-03T11:12:45.990Z,99656.93
2023-04-03T11:15:20.865Z,99653.25
2023-04-03T11:18:04.092Z,99656.59
2023-04-03T11:20:38.594Z,99651.61
2023-04-03T11:23:42.298Z,99660.70
2023-04-03T11:26:16.908Z,99660.84
2023-04-03T11:32:30.872Z,99668.07
2023-04-03T11:35:04.456Z,99667.05
2023-04-03T11:37:45.054Z,99674.02
2023-04-03T11:40:22.647Z,99676.95
2023-04-03T11:43:08.894Z,99670.84
2023-04-03T11:46:00.585Z,99679.59
2023-04-03T11:48:41.077Z,99692.42
2023-04-03T11:51:34.498Z,99693.25
2023-04-03T11:54:48.546Z,99702.94
2023-04-03T11:57:57.798Z,99703.50
2023-04-03T12:00:55.555Z,99705.41
2023-04-03T12:03:34.778Z,99698.70
2023-04-03T12:06:16.660Z,99699.22
2023-04-03T12:08:53.357Z,99700.06
2023-04-03T12:11:34.261Z,99705.47
2023-04-03T12:14:09.929Z,99710.81
2023-04-03T12:16:48.695Z,99710.49
2023-04-03T12:19:42.000Z,99713.19
2023-04-03T12:22:11.020Z,99714.81
2023-04-03T12:24:49.682Z,99719.79
2023-04-03T12:27:33.274Z,99726.15
2023-04-03T12:30:17.860Z,99724.85
2023-04-03T12:33:14.293Z,99734.45
2023-04-03T12:36:14.365Z,99727.28
2023-04-03T12:39:04.652Z,99728.52
2023-04-03T12:42:01.119Z,99731.80
2023-04-03T12:45:15.326Z,99741.53
2023-04-03T12:47:50.595Z,99730.03
2023-04-03T12:50:27.036Z,99735.22
2023-04-03T12:53:21.775Z,99748.22
2023-04-03T12:56:22.536Z,99742.59
2023-04-03T12:58:59.540Z,99745.43
2023-04-03T13:01:32.769Z,99745.12
2023-04-03T13:04:06.329Z,99752.42
2023-04-03T13:06:43.422Z,99753.72
2023-04-03T13:09:33.750Z,99758.55
2023-04-03T13:12:37.434Z,99755.86
2023-04-03T13:15:24.390Z,99766.09
2023-04-03T13:17:57.815Z,99764.87
2023-04-03T13:20:35.201Z,99770.17
2023-04-03T13:23:12.974Z,99771.63
2023-04-03T13:25:46.997Z,99768.47
2023-04-03T13:28:25.076Z,99778.80
2023-04-03T13:31:19.122Z,99784.45
2023-04-03T13:34:05.555Z,99790.84
2023-04-03T13:36:45.285Z,99791.97
2023-04-03T13:39:28.135Z,99791.48
2023-04-03T13:42:03.770Z,99799.30
2023-04-03T13:44:39.853Z,99803.35
2023-04-03T13:47:24.373Z,99804.60
2023-04-03T13:50:16.778Z,99815.66
2023-04-03T13:52:54.229Z,99816.53
2023-04-03T13:55:34.255Z,99823.20
2023-04-03T13:58:15.396Z,99818.42
2023-04-03T14:00:58.387Z,99820.86
2023-04-03T14:03:45.217Z,99834.13
2023-04-03T14:06:18.715Z,99835.59
2023-04-03T14:08:51.327Z,99838.16
2023-04-03T14:11:28.395Z,99851.16
2023-04-03T14:14:05.473Z,99839.98
2023-04-03T14:16:42.635Z,99851.55
2023-04-03T14:19:25.154Z,99854.23
2023-04-03T14:21:58.612Z,99846.38
2023-04-03T14:24:31.749Z,99860.89
2023-04-03T14:27:04.541Z,99872.42
2023-04-03T14:29:38.519Z,99869.02
2023-04-03T14:32:16.759Z,99877.23
2023-04-03T14:34:49.853Z,99882.23
2023-04-03T14:37:28.953Z,99875.77
2023-04-03T14:40:04.846Z,99886.05
2023-04-03T14:42:39.382Z,99878.09
2023-04-03T14:45:13.702Z,99883.72
2023-04-03T14:47:53.449Z,99879.78
2023-04-03T14:50:28.320Z,99885.06
2023-04-03T14:53:01.703Z,99898.08
2023-04-03T14:55:36.375Z,99896.72
2023-04-03T14:58:12.158Z,99897.08
2023-04-03T15:00:46.287Z,99899.19
2023-04-03T15:03:22.632Z,99904.83
2023-04-03T15:05:55.556Z,99900.16
2023-04-03T15:08:31.109Z,99905.32
2023-04-03T15:11:04.747Z,99911.44
2023-04-03T15:13:37.735Z,99915.72
2023-04-03T15:16:21.356Z,99925.91
2023-04-03T15:18:53.915Z,99932.14
2023-04-03T15:21:28.837Z,99938.64
2023-04-03T15:24:02.251Z,99936.66
2023-04-03T15:26:35.808Z,99948.91
2023-04-03T15:29:10.085Z,99949.14
2023-04-03T15:31:43.563Z,99955.25
2023-04-03T15:34:17.638Z,99960.16
2023-04-03T15:36:52.952Z,99965.30
2023-04-03T15:39:26.642Z,99968.59
2023-04-03T15:42:01.678Z,99968.23
2023-04-03T15:44:37.738Z,99963.19
2023-04-03T15:47:09.778Z,99965.87
2023-04-03T15:49:42.870Z,99962.64
2023-04-03T15:52:15.948Z,99974.28
2023-04-03T15:54:48.857Z,99973.53
2023-04-03T15:57:21.565Z,99973.98
2023-04-03T15:59:54.715Z,99974.44
2023-04-03T16:02:28.615Z,99978.97
2023-04-03T16:05:02.884Z,99982.84
2023-04-03T16:07:36.364Z,99978.30
2023-04-03T16:10:11.288Z,99971.42
2023-04-03T16:12:44.546Z,99973.50
2023-04-03T16:15:18.672Z,99982.56
2023-04-03T16:17:51.749Z,99978.16
2023-04-03T16:20:24.887Z,99985.95
2023-04-03T16:22:58.661Z,99987.41
2023-04-03T16:25:32.247Z,99985.17
2023-04-03T16:28:05.210Z,99991.06
2023-04-03T16:30:38.228Z,99992.16
2023-04-03T16:33:12.995Z,99995.80
2023-04-03T16:35:46.013Z,99993.11
2023-04-03T16:38:20.627Z,99991.26
2023-04-03T16:40:54.871Z,99991.08
2023-04-03T16:43:28.457Z,99994.03
2023-04-03T16:46:03.575Z,99996.07
2023-04-03T16:48:36.943Z,100005.23
2023-04-03T16:51:09.864Z,100005.61
2023-04-03T16:53:43.499Z,100009.53
2023-04-03T16:56:17.006Z,100006.59
2023-04-03T16:58:50.339Z,100018.30
2023-04-03T17:01:24.677Z,100014.88
2023-04-03T17:03:58.583Z,100017.64
2023-04-03T17:06:31.766Z,100023.25
2023-04-03T17:09:04.484Z,100026.52
2023-04-03T17:11:37.815Z,100026.00
2023-04-03T17:14:11.223Z,100027.46
2023-04-03T17:16:44.487Z,100040.41
2023-04-03T17:19:18.181Z,100034.66
2023-04-03T17:21:51.125Z,100042.73
2023-04-03T17:24:23.646Z,100049.47
2023-04-03T17:26:56.870Z,100050.80
2023-04-03T17:29:29.496Z,100051.94
2023-04-03T17:32:02.294Z,100054.63
2023-04-03T17:34:37.126Z,100052.52
2023-04-03T17:37:11.211Z,100058.52
2023-04-03T17:39:43.509Z,100054.95
2023-04-03T17:42:16.774Z,100061.39
2023-04-03T17:44:49.650Z,100059.94
2023-04-03T17:47:23.180Z,100068.11
2023-04-03T17:49:56.146Z,100070.23
2023-04-03T17:52:28.845Z,100076.08
2023-04-03T17:55:02.126Z,100073.39
2023-04-03T17:57:35.059Z,100079.09
2023-04-03T18:00:11.810Z,100075.48
2023-04-03T18:02:46.191Z,100084.34
2023-04-03T18:05:18.748Z,100079.36
2023-04-03T18:07:52.791Z,100085.22
2023-04-03T18:10:25.722Z,100080.70
2023-04-03T18:12:58.483Z,100087.59
2023-04-03T18:15:33.194Z,100085.88
2023-04-03T18:18:05.938Z,100085.00
2023-04-03T18:20:39.680Z,100087.59
2023-04-03T18:23:13.376Z,100085.77
2023-04-03T18:25:46.360Z,100086.40
2023-04-03T18:28:19.101Z,100089.96
2023-04-03T18:30:51.926Z,100088.51
2023-04-03T18:33:25.157Z,100090.83
2023-04-03T18:35:58.444Z,100091.05
2023-04-03T18:38:31.336Z,100095.45
2023-04-03T18:41:05.144Z,100102.33
2023-04-03T18:43:38.143Z,100112.36
2023-04-03T18:46:10.833Z,100108.53
2023-04-03T18:48:45.945Z,100106.42
2023-04-03T18:51:19.025Z,100113.36
2023-04-03T18:53:51.695Z,100114.91
2023-04-03T18:56:25.669Z,100111.95
2023-04-03T18:58:59.162Z,100110.92
2023-04-03T19:01:32.014Z,100112.48
2023-04-03T19:04:05.517Z,100118.90
2023-04-03T19:06:38.254Z,100126.69
2023-04-03T19:09:11.527Z,100122.81
2023-04-03T19:11:44.409Z,100123.94
2023-04-03T19:14:18.057Z,100129.60
2023-04-03T19:16:51.083Z,100136.50
2023-04-03T19:19:23.774Z,100135.42
2023-04-03T19:21:57.562Z,100139.98
2023-04-03T19:24:30.944Z,100137.92
2023-04-03T19:27:05.352Z,100141.50
2023-04-03T19:29:37.990Z,100144.30
2023-04-03T19:32:12.149Z,100143.38
2023-04-03T19:34:44.763Z,100144.09
2023-04-03T19:37:18.769Z,100134.58
2023-04-03T19:39:51.431Z,100131.99
2023-04-03T19:42:24.528Z,100140.30
2023-04-03T19:44:57.593Z,100141.34
2023-04-03T19:47:30.491Z,100139.53
2023-04-03T19:50:03.652Z,100140.61
2023-04-03T19:52:37.361Z,100144.64
2023-04-03T19:55:11.140Z,100131.00
2023-04-03T19:57:43.636Z,100127.37
2023-04-03T20:00:17.902Z,100125.63
2023-04-03T20:02:51.282Z,100117.89
2023-04-03T20:05:24.380Z,100115.88
2023-04-03T20:07:56.849Z,100115.11
2023-04-03T20:10:29.388Z,100120.33
2023-04-03T20:13:03.945Z,100125.33
2023-04-03T20:15:38.703Z,100135.02
2023-04-03T20:18:18.806Z,100139.98
2023-04-03T20:21:02.334Z,100132.28
2023-04-03T20:23:35.645Z,100131.34
2023-04-03T20:26:13.839Z,100135.97
2023-04-03T20:28:42.271Z,100141.19
2023-04-03T20:31:16.082Z,100141.99
2023-04-03T20:33:49.623Z,100144.09
2023-04-03T20:36:23.830Z,100141.83
2023-04-03T20:38:56.257Z,100146.80
2023-04-03T20:41:28.861Z,100148.83
2023-04-03T20:44:03.094Z,100146.20
2023-04-03T20:46:51.460Z,100149.52
2023-04-03T20:49:11.142Z,100157.44
2023-04-03T20:51:44.248Z,100162.33
2023-04-03T20:54:17.768Z,100164.66
2023-04-03T20:56:50.679Z,100158.23
2023-04-03T20:59:24.455Z,100162.61
2023-04-03T21:01:58.377Z,100170.67
2023-04-03T21:04:42.375Z,100173.90
2023-04-03T21:08:11.072Z,100162.77
2023-04-03T21:11:38.547Z,100160.45
2023-04-03T21:15:06.358Z,100143.55
2023-04-03T21:17:37.830Z,100149.53
2023-04-03T21:20:10.342Z,100154.84
2023-04-03T21:22:44.536Z,100163.55
2023-04-03T21:25:17.044Z,100165.50
2023-04-03T21:27:50.000Z,100171.17
2023-04-03T21:30:22.909Z,100166.66
2023-04-03T21:32:56.637Z,100170.33
2023-04-03T21:35:29.838Z,100172.65
2023-04-03T21:38:02.363Z,100179.06
2023-04-03T21:40:35.018Z,100183.02
2023-04-03T21:43:07.563Z,100180.84
2023-04-03T21:45:41.005Z,100181.20
2023-04-03T21:48:15.462Z,100176.41
2023-04-03T21:50:49.417Z,100175.35
2023-04-03T21:53:23.249Z,100172.66
2023-04-03T21:55:58.314Z,100185.31
2023-04-03T21:58:33.872Z,100177.92
2023-04-03T22:01:16.499Z,100194.75
2023-04-03T22:03:50.178Z,100202.53
2023-04-03T22:06:23.325Z,100203.02
2023-04-03T22:08:59.308Z,100196.13
2023-04-03T22:11:31.834Z,100193.54
2023-04-03T22:14:04.544Z,100198.22
2023-04-03T22:16:39.359Z,100207.45
2023-04-03T22:19:12.372Z,100206.77
2023-04-03T22:21:45.781Z,100210.89
2023-04-03T22:24:19.782Z,100213.58
2023-04-03T22:26:52.221Z,100211.77
2023-04-03T22:29:25.001Z,100209.86
2023-04-03T22:31:57.541Z,100212.81
2023-04-03T22:34:30.419Z,100205.83
2023-04-03T22:37:03.239Z,100211.69
2023-04-03T22:39:36.151Z,100204.38
2023-04-03T22:42:09.354Z,100209.20
2023-04-03T22:44:42.126Z,100202.48
2023-04-03T22:47:14.488Z,100197.88
2023-04-03T22:49:48.046Z,100195.01
2023-04-03T22:52:21.066Z,100195.47
2023-04-03T22:54:53.602Z,100190.51
2023-04-03T22:57:26.647Z,100191.76
2023-04-03T23:00:00.105Z,100182.92
2023-04-03T23:02:34.400Z,100188.29
2023-04-03T23:05:08.549Z,100188.56
2023-04-03T23:07:41.047Z,100186.20
2023-04-03T23:10:13.835Z,100193.19
2023-04-03T23:12:46.623Z,100185.40
2023-04-03T23:15:19.725Z,100190.67
2023-04-03T23:17:53.155Z,100197.11
2023-04-03T23:20:26.689Z,100195.41
2023-04-03T23:22:59.445Z,100201.71
2023-04-03T23:25:32.436Z,100202.50
2023-04-03T23:28:06.089Z,100203.44
2023-04-03T23:30:38.890Z,100195.38
2023-04-03T23:33:12.634Z,100200.57
2023-04-03T23:35:48.659Z,100203.63
2023-04-03T23:38:21.736Z,100203.36
2023-04-03T23:40:54.189Z,100201.63
2023-04-03T23:43:27.847Z,100193.11
2023-04-03T23:46:00.651Z,100190.42
2023-04-03T23:48:33.256Z,100189.73
2023-04-03T23:51:07.362Z,100194.81
2023-04-03T23:53:41.151Z,100192.13
2023-04-03T23:56:14.531Z,100196.72
2023-04-03T23:58:47.733Z,100185.33
